Hauptseite
METAR-TAF:

METAR-TAF

Flughäfen :

Flughafen Bahrain

Bahrain, Bahrain

Breite: 26-16N, Länge: 050-39E, Höhe: 2 m

Beobachtung

Neuester Wetterbericht von vor 17 Minuten, um 21:00 UTC
Wind 11 kt aus West/Nordwest
Temperatur 35°C
Luftfeuchtigkeit 27%
Luftdruck 1000 hPa
Sichtweite: 6000 m
Himmel klar

METAR: OBBI 232100Z 29011KT 6000 SKC 35/13 Q1000 NOSIG

Zeit: 00:17 (21:17 UTC)

Prognose

Neuester Wetterbericht von vor 4 Stunden und 17 Minuten, um 17:00 UTC
Gültige Prognose vom 23 um 18 UTC bis 25 um 00 UTC
Wind 10 kt aus West/Nordwest
Sichtweite: 8000 m
Übergehend zu
vom 24 um 04 UTC bis 24 um 06 UTC
Wind 15 kt aus Nord/Nordwest, Böen bis zu 25 kt
Übergehend zu
vom 24 um 20 UTC bis 24 um 22 UTC
Wind 7 kt aus West/Nordwest

TAF: OBBI 231700Z 2318/2500 29010KT 8000 NSC BECMG 2404/2406 34015G25KT BECMG 2420/2422 30007KT

Wetterbeobachtungen und Prognosen von mehr als 4000 Flughäfen (METAR und TAF Bericht).

Die verfügbaren Stationen werden durch gelbe und rote Markierungen auf der Karte dargestellt.

Führen Sie die Maus auf sie, um den Namen der Station zu sehen.

Darauf klicken, um die Beobachtung von Wetterbeobachtungen und Prognosen zu sehen.

Um die Karte zu ändern : klicken Sie auf den grünen Tasten mit einem schwarzen Kreuz Zum Vergrößern, auf den grünen Button mit einem Gedankenstrich zu verkleinern, oder auf die grünen Pfeile für benachbarte Karten.


METAR-TAF: